sensor_id;sensor_type;location;lat;lon;timestamp;temperature;humidity
19888;DHT22;10106;51.332;12.336;2023-04-06T00:01:10;3.60;99.90
19888;DHT22;10106;51.332;12.336;2023-04-06T00:03:36;3.60;99.90
19888;DHT22;10106;51.332;12.336;2023-04-06T00:06:02;3.60;99.90
19888;DHT22;10106;51.332;12.336;2023-04-06T00:08:27;3.60;99.90
19888;DHT22;10106;51.332;12.336;2023-04-06T00:10:54;3.60;99.90
19888;DHT22;10106;51.332;12.336;2023-04-06T00:13:19;3.70;99.90
19888;DHT22;10106;51.332;12.336;2023-04-06T00:15:45;3.70;99.90
19888;DHT22;10106;51.332;12.336;2023-04-06T00:18:11;3.70;99.90
19888;DHT22;10106;51.332;12.336;2023-04-06T00:20:37;3.70;99.90
19888;DHT22;10106;51.332;12.336;2023-04-06T00:23:03;3.70;99.90
19888;DHT22;10106;51.332;12.336;2023-04-06T00:25:28;3.70;99.90
19888;DHT22;10106;51.332;12.336;2023-04-06T00:27:54;3.70;99.90
19888;DHT22;10106;51.332;12.336;2023-04-06T00:30:20;3.70;99.90
19888;DHT22;10106;51.332;12.336;2023-04-06T00:32:46;3.70;99.90
19888;DHT22;10106;51.332;12.336;2023-04-06T00:35:12;3.60;99.90
19888;DHT22;10106;51.332;12.336;2023-04-06T00:37:37;3.60;99.90
19888;DHT22;10106;51.332;12.336;2023-04-06T00:40:03;3.60;99.90
19888;DHT22;10106;51.332;12.336;2023-04-06T00:42:29;3.60;99.90
19888;DHT22;10106;51.332;12.336;2023-04-06T00:44:58;3.60;99.90
19888;DHT22;10106;51.332;12.336;2023-04-06T00:47:24;3.60;99.90
19888;DHT22;10106;51.332;12.336;2023-04-06T00:49:54;3.70;99.90
19888;DHT22;10106;51.332;12.336;2023-04-06T00:52:20;3.70;99.90
19888;DHT22;10106;51.332;12.336;2023-04-06T00:54:46;3.70;99.90
19888;DHT22;10106;51.332;12.336;2023-04-06T00:57:12;3.70;99.90
19888;DHT22;10106;51.332;12.336;2023-04-06T00:59:39;3.70;99.90
19888;DHT22;10106;51.332;12.336;2023-04-06T01:02:05;3.70;99.90
19888;DHT22;10106;51.332;12.336;2023-04-06T01:04:31;3.70;99.90
19888;DHT22;10106;51.332;12.336;2023-04-06T01:06:57;3.70;99.90
19888;DHT22;10106;51.332;12.336;2023-04-06T01:09:23;3.70;99.90
19888;DHT22;10106;51.332;12.336;2023-04-06T01:11:49;3.70;99.90
19888;DHT22;10106;51.332;12.336;2023-04-06T01:14:15;3.70;99.90
19888;DHT22;10106;51.332;12.336;2023-04-06T01:16:41;3.70;99.90
19888;DHT22;10106;51.332;12.336;2023-04-06T01:19:13;3.70;99.90
19888;DHT22;10106;51.332;12.336;2023-04-06T01:21:40;3.70;99.90
19888;DHT22;10106;51.332;12.336;2023-04-06T01:24:07;3.70;99.90
19888;DHT22;10106;51.332;12.336;2023-04-06T01:26:34;3.70;99.90
19888;DHT22;10106;51.332;12.336;2023-04-06T01:29:02;3.60;99.90
19888;DHT22;10106;51.332;12.336;2023-04-06T01:31:28;3.70;99.90
19888;DHT22;10106;51.332;12.336;2023-04-06T01:33:54;3.70;99.90
19888;DHT22;10106;51.332;12.336;2023-04-06T01:36:20;3.70;99.90
19888;DHT22;10106;51.332;12.336;2023-04-06T01:38:46;3.70;99.90
19888;DHT22;10106;51.332;12.336;2023-04-06T01:41:11;3.70;99.90
19888;DHT22;10106;51.332;12.336;2023-04-06T01:43:37;3.70;99.90
19888;DHT22;10106;51.332;12.336;2023-04-06T01:46:03;3.70;99.90
19888;DHT22;10106;51.332;12.336;2023-04-06T01:48:29;3.60;99.90
19888;DHT22;10106;51.332;12.336;2023-04-06T01:50:55;3.60;99.90
19888;DHT22;10106;51.332;12.336;2023-04-06T01:53:21;3.60;99.90
19888;DHT22;10106;51.332;12.336;2023-04-06T01:55:47;3.60;99.90
19888;DHT22;10106;51.332;12.336;2023-04-06T01:58:13;3.60;99.90
19888;DHT22;10106;51.332;12.336;2023-04-06T02:00:39;3.60;99.90
19888;DHT22;10106;51.332;12.336;2023-04-06T02:03:05;3.60;99.90
19888;DHT22;10106;51.332;12.336;2023-04-06T02:05:32;3.50;99.90
19888;DHT22;10106;51.332;12.336;2023-04-06T02:08:04;3.50;99.90
19888;DHT22;10106;51.332;12.336;2023-04-06T02:10:31;3.50;99.90
19888;DHT22;10106;51.332;12.336;2023-04-06T02:12:56;3.40;99.90
19888;DHT22;10106;51.332;12.336;2023-04-06T02:15:22;3.30;99.90
19888;DHT22;10106;51.332;12.336;2023-04-06T02:17:48;3.30;99.90
19888;DHT22;10106;51.332;12.336;2023-04-06T02:20:14;3.30;99.90
19888;DHT22;10106;51.332;12.336;2023-04-06T02:22:39;3.20;99.90
19888;DHT22;10106;51.332;12.336;2023-04-06T02:25:06;3.20;99.90
19888;DHT22;10106;51.332;12.336;2023-04-06T02:27:31;3.10;99.90
19888;DHT22;10106;51.332;12.336;2023-04-06T02:29:57;3.10;99.90
19888;DHT22;10106;51.332;12.336;2023-04-06T02:32:23;3.10;99.90
19888;DHT22;10106;51.332;12.336;2023-04-06T02:34:49;3.00;99.90
19888;DHT22;10106;51.332;12.336;2023-04-06T02:37:15;3.00;99.90
19888;DHT22;10106;51.332;12.336;2023-04-06T02:39:41;3.00;99.90
19888;DHT22;10106;51.332;12.336;2023-04-06T02:42:07;3.00;99.90
19888;DHT22;10106;51.332;12.336;2023-04-06T02:44:34;3.00;99.90
19888;DHT22;10106;51.332;12.336;2023-04-06T02:47:00;3.00;99.90
19888;DHT22;10106;51.332;12.336;2023-04-06T02:49:26;3.00;99.90
19888;DHT22;10106;51.332;12.336;2023-04-06T02:51:51;3.00;99.90
19888;DHT22;10106;51.332;12.336;2023-04-06T02:54:17;3.00;99.90
19888;DHT22;10106;51.332;12.336;2023-04-06T02:56:43;3.00;99.90
19888;DHT22;10106;51.332;12.336;2023-04-06T02:59:09;3.00;99.90
19888;DHT22;10106;51.332;12.336;2023-04-06T03:01:35;3.00;99.90
19888;DHT22;10106;51.332;12.336;2023-04-06T03:04:01;3.00;99.90
19888;DHT22;10106;51.332;12.336;2023-04-06T03:06:27;3.00;99.90
19888;DHT22;10106;51.332;12.336;2023-04-06T03:08:53;3.00;99.90
19888;DHT22;10106;51.332;12.336;2023-04-06T03:11:19;3.00;99.90
19888;DHT22;10106;51.332;12.336;2023-04-06T03:13:45;3.00;99.90
19888;DHT22;10106;51.332;12.336;2023-04-06T03:16:10;3.00;99.90
19888;DHT22;10106;51.332;12.336;2023-04-06T03:18:37;3.00;99.90
19888;DHT22;10106;51.332;12.336;2023-04-06T03:21:03;3.00;99.90
19888;DHT22;10106;51.332;12.336;2023-04-06T03:23:28;3.00;99.90
19888;DHT22;10106;51.332;12.336;2023-04-06T03:25:54;3.00;99.90
19888;DHT22;10106;51.332;12.336;2023-04-06T03:28:20;3.00;99.90
19888;DHT22;10106;51.332;12.336;2023-04-06T03:30:46;2.90;99.90
19888;DHT22;10106;51.332;12.336;2023-04-06T03:33:12;2.90;99.90
19888;DHT22;10106;51.332;12.336;2023-04-06T03:35:37;2.80;99.90
19888;DHT22;10106;51.332;12.336;2023-04-06T03:38:04;2.80;99.90
19888;DHT22;10106;51.332;12.336;2023-04-06T03:40:32;2.70;99.90
19888;DHT22;10106;51.332;12.336;2023-04-06T03:42:58;2.70;99.90
19888;DHT22;10106;51.332;12.336;2023-04-06T03:45:24;2.60;99.90
19888;DHT22;10106;51.332;12.336;2023-04-06T03:47:50;2.60;99.90
19888;DHT22;10106;51.332;12.336;2023-04-06T03:50:16;2.50;99.90
19888;DHT22;10106;51.332;12.336;2023-04-06T03:52:41;2.40;99.90
19888;DHT22;10106;51.332;12.336;2023-04-06T03:55:07;2.40;99.90
19888;DHT22;10106;51.332;12.336;2023-04-06T03:57:33;2.30;99.90
19888;DHT22;10106;51.332;12.336;2023-04-06T03:59:59;2.30;99.90
19888;DHT22;10106;51.332;12.336;2023-04-06T04:02:25;2.20;99.90
19888;DHT22;10106;51.332;12.336;2023-04-06T04:04:50;2.20;99.90
19888;DHT22;10106;51.332;12.336;2023-04-06T04:07:16;2.10;99.90
19888;DHT22;10106;51.332;12.336;2023-04-06T04:09:42;2.10;99.90
19888;DHT22;10106;51.332;12.336;2023-04-06T04:12:07;2.00;99.90
19888;DHT22;10106;51.332;12.336;2023-04-06T04:14:33;2.00;99.90
19888;DHT22;10106;51.332;12.336;2023-04-06T04:16:59;1.90;99.90
19888;DHT22;10106;51.332;12.336;2023-04-06T04:19:24;1.90;99.90
19888;DHT22;10106;51.332;12.336;2023-04-06T04:21:50;1.90;99.90
19888;DHT22;10106;51.332;12.336;2023-04-06T04:24:16;1.90;99.90
19888;DHT22;10106;51.332;12.336;2023-04-06T04:26:42;1.80;99.90
19888;DHT22;10106;51.332;12.336;2023-04-06T04:29:07;1.80;99.90
19888;DHT22;10106;51.332;12.336;2023-04-06T04:31:33;1.80;99.90
19888;DHT22;10106;51.332;12.336;2023-04-06T04:33:59;1.80;99.90
19888;DHT22;10106;51.332;12.336;2023-04-06T04:36:26;1.80;99.90
19888;DHT22;10106;51.332;12.336;2023-04-06T04:38:54;1.90;99.90
19888;DHT22;10106;51.332;12.336;2023-04-06T04:41:20;1.90;99.90
19888;DHT22;10106;51.332;12.336;2023-04-06T04:43:46;1.90;99.90
19888;DHT22;10106;51.332;12.336;2023-04-06T04:46:11;1.90;99.90
19888;DHT22;10106;51.332;12.336;2023-04-06T04:48:37;1.90;99.90
19888;DHT22;10106;51.332;12.336;2023-04-06T04:51:04;1.90;99.90
19888;DHT22;10106;51.332;12.336;2023-04-06T04:53:30;1.90;99.90
19888;DHT22;10106;51.332;12.336;2023-04-06T04:55:56;2.00;99.90
19888;DHT22;10106;51.332;12.336;2023-04-06T04:58:22;2.00;99.90
19888;DHT22;10106;51.332;12.336;2023-04-06T05:05:59;2.20;99.90
19888;DHT22;10106;51.332;12.336;2023-04-06T05:08:24;2.30;99.90
19888;DHT22;10106;51.332;12.336;2023-04-06T05:10:50;2.40;99.90
19888;DHT22;10106;51.332;12.336;2023-04-06T05:13:16;2.40;99.90
19888;DHT22;10106;51.332;12.336;2023-04-06T05:15:42;2.50;99.90
19888;DHT22;10106;51.332;12.336;2023-04-06T05:18:08;2.60;99.90
19888;DHT22;10106;51.332;12.336;2023-04-06T05:20:35;2.70;99.90
19888;DHT22;10106;51.332;12.336;2023-04-06T05:23:01;2.80;99.90
19888;DHT22;10106;51.332;12.336;2023-04-06T05:25:27;3.00;99.90
19888;DHT22;10106;51.332;12.336;2023-04-06T05:27:53;3.10;99.90
19888;DHT22;10106;51.332;12.336;2023-04-06T05:30:19;3.20;99.90
19888;DHT22;10106;51.332;12.336;2023-04-06T05:32:46;3.30;99.90
19888;DHT22;10106;51.332;12.336;2023-04-06T05:35:12;3.50;99.90
19888;DHT22;10106;51.332;12.336;2023-04-06T05:37:38;3.60;99.90
19888;DHT22;10106;51.332;12.336;2023-04-06T05:40:05;3.70;99.90
19888;DHT22;10106;51.332;12.336;2023-04-06T05:42:38;4.20;99.90
19888;DHT22;10106;51.332;12.336;2023-04-06T05:45:05;4.40;99.90
19888;DHT22;10106;51.332;12.336;2023-04-06T05:47:31;4.70;99.90
19888;DHT22;10106;51.332;12.336;2023-04-06T05:49:56;5.70;99.90
19888;DHT22;10106;51.332;12.336;2023-04-06T05:52:22;6.10;99.90
19888;DHT22;10106;51.332;12.336;2023-04-06T05:54:48;6.00;99.90
19888;DHT22;10106;51.332;12.336;2023-04-06T05:57:14;6.10;99.90
19888;DHT22;10106;51.332;12.336;2023-04-06T05:59:40;5.90;99.90
19888;DHT22;10106;51.332;12.336;2023-04-06T06:02:06;5.70;99.90
19888;DHT22;10106;51.332;12.336;2023-04-06T06:04:31;6.40;99.90
19888;DHT22;10106;51.332;12.336;2023-04-06T06:06:57;6.60;99.90
19888;DHT22;10106;51.332;12.336;2023-04-06T06:09:23;6.70;99.90
19888;DHT22;10106;51.332;12.336;2023-04-06T06:11:49;7.00;99.90
19888;DHT22;10106;51.332;12.336;2023-04-06T06:14:15;8.30;99.90
19888;DHT22;10106;51.332;12.336;2023-04-06T06:16:40;9.10;99.90
19888;DHT22;10106;51.332;12.336;2023-04-06T06:19:06;9.40;99.90
19888;DHT22;10106;51.332;12.336;2023-04-06T06:21:32;9.20;99.90
19888;DHT22;10106;51.332;12.336;2023-04-06T06:23:57;9.90;99.90
19888;DHT22;10106;51.332;12.336;2023-04-06T06:26:23;11.00;98.10
19888;DHT22;10106;51.332;12.336;2023-04-06T06:28:49;11.90;95.60
19888;DHT22;10106;51.332;12.336;2023-04-06T06:31:15;13.00;92.50
19888;DHT22;10106;51.332;12.336;2023-04-06T06:33:41;14.00;89.50
19888;DHT22;10106;51.332;12.336;2023-04-06T06:36:06;14.40;83.60
19888;DHT22;10106;51.332;12.336;2023-04-06T06:38:32;13.70;80.50
19888;DHT22;10106;51.332;12.336;2023-04-06T06:40:58;14.70;80.20
19888;DHT22;10106;51.332;12.336;2023-04-06T06:43:24;14.30;74.80
19888;DHT22;10106;51.332;12.336;2023-04-06T06:45:49;14.80;74.90
19888;DHT22;10106;51.332;12.336;2023-04-06T06:48:15;15.20;72.90
19888;DHT22;10106;51.332;12.336;2023-04-06T06:50:41;16.00;68.40
19888;DHT22;10106;51.332;12.336;2023-04-06T06:53:07;16.30;63.40
19888;DHT22;10106;51.332;12.336;2023-04-06T06:55:32;15.90;61.70
19888;DHT22;10106;51.332;12.336;2023-04-06T06:57:58;17.30;61.80
19888;DHT22;10106;51.332;12.336;2023-04-06T07:00:24;18.10;57.40
19888;DHT22;10106;51.332;12.336;2023-04-06T07:02:49;17.90;55.50
19888;DHT22;10106;51.332;12.336;2023-04-06T07:05:16;17.80;55.20
19888;DHT22;10106;51.332;12.336;2023-04-06T07:07:42;15.90;55.10
19888;DHT22;10106;51.332;12.336;2023-04-06T07:10:08;15.40;57.70
19888;DHT22;10106;51.332;12.336;2023-04-06T07:12:34;17.10;56.80
19888;DHT22;10106;51.332;12.336;2023-04-06T07:15:02;18.50;52.80
19888;DHT22;10106;51.332;12.336;2023-04-06T07:17:28;18.30;50.60
19888;DHT22;10106;51.332;12.336;2023-04-06T07:19:55;17.40;50.00
19888;DHT22;10106;51.332;12.336;2023-04-06T07:22:21;18.00;50.00
19888;DHT22;10106;51.332;12.336;2023-04-06T07:24:47;17.30;49.20
19888;DHT22;10106;51.332;12.336;2023-04-06T07:27:13;16.70;49.10
19888;DHT22;10106;51.332;12.336;2023-04-06T07:29:38;16.90;49.20
19888;DHT22;10106;51.332;12.336;2023-04-06T07:32:05;16.20;50.10
19888;DHT22;10106;51.332;12.336;2023-04-06T07:34:33;16.20;49.60
19888;DHT22;10106;51.332;12.336;2023-04-06T07:36:59;17.30;50.40
19888;DHT22;10106;51.332;12.336;2023-04-06T07:39:26;18.30;48.80
19888;DHT22;10106;51.332;12.336;2023-04-06T07:41:52;19.60;47.70
19888;DHT22;10106;51.332;12.336;2023-04-06T07:44:18;20.30;45.10
19888;DHT22;10106;51.332;12.336;2023-04-06T07:46:44;20.20;44.30
19888;DHT22;10106;51.332;12.336;2023-04-06T07:49:09;20.10;44.30
19888;DHT22;10106;51.332;12.336;2023-04-06T07:51:37;20.30;43.60
19888;DHT22;10106;51.332;12.336;2023-04-06T07:54:02;19.40;43.60
19888;DHT22;10106;51.332;12.336;2023-04-06T07:56:28;19.60;44.30
19888;DHT22;10106;51.332;12.336;2023-04-06T07:58:54;20.00;43.20
19888;DHT22;10106;51.332;12.336;2023-04-06T08:01:22;20.90;43.70
19888;DHT22;10106;51.332;12.336;2023-04-06T08:03:47;21.50;41.60
19888;DHT22;10106;51.332;12.336;2023-04-06T08:06:14;20.60;41.10
19888;DHT22;10106;51.332;12.336;2023-04-06T08:08:40;20.40;41.40
19888;DHT22;10106;51.332;12.336;2023-04-06T08:11:05;20.20;40.90
19888;DHT22;10106;51.332;12.336;2023-04-06T08:13:31;21.40;42.00
19888;DHT22;10106;51.332;12.336;2023-04-06T08:15:57;21.50;40.30
19888;DHT22;10106;51.332;12.336;2023-04-06T08:18:24;22.10;40.80
19888;DHT22;10106;51.332;12.336;2023-04-06T08:20:49;22.70;39.30
19888;DHT22;10106;51.332;12.336;2023-04-06T08:23:15;22.10;39.30
19888;DHT22;10106;51.332;12.336;2023-04-06T08:25:43;22.50;39.00
19888;DHT22;10106;51.332;12.336;2023-04-06T08:28:09;22.10;38.40
19888;DHT22;10106;51.332;12.336;2023-04-06T08:30:35;22.70;38.70
19888;DHT22;10106;51.332;12.336;2023-04-06T08:33:01;23.50;37.30
19888;DHT22;10106;51.332;12.336;2023-04-06T08:35:27;21.70;37.90
19888;DHT22;10106;51.332;12.336;2023-04-06T08:37:53;22.90;37.70
19888;DHT22;10106;51.332;12.336;2023-04-06T08:40:19;24.10;36.60
19888;DHT22;10106;51.332;12.336;2023-04-06T08:42:54;24.10;35.70
19888;DHT22;10106;51.332;12.336;2023-04-06T08:45:20;23.00;35.60
19888;DHT22;10106;51.332;12.336;2023-04-06T08:47:49;22.70;35.50
19888;DHT22;10106;51.332;12.336;2023-04-06T08:50:16;21.90;35.30
19888;DHT22;10106;51.332;12.336;2023-04-06T08:52:44;23.00;36.40
19888;DHT22;10106;51.332;12.336;2023-04-06T08:55:14;23.40;35.70
19888;DHT22;10106;51.332;12.336;2023-04-06T08:57:40;24.40;35.10
19888;DHT22;10106;51.332;12.336;2023-04-06T09:00:08;24.30;34.50
19888;DHT22;10106;51.332;12.336;2023-04-06T09:02:39;23.90;33.60
19888;DHT22;10106;51.332;12.336;2023-04-06T09:05:08;23.40;34.30
19888;DHT22;10106;51.332;12.336;2023-04-06T09:07:35;23.60;34.20
19888;DHT22;10106;51.332;12.336;2023-04-06T09:10:00;23.60;33.70
19888;DHT22;10106;51.332;12.336;2023-04-06T09:12:28;23.40;34.20
19888;DHT22;10106;51.332;12.336;2023-04-06T09:14:55;23.70;33.60
19888;DHT22;10106;51.332;12.336;2023-04-06T09:17:22;24.30;33.60
19888;DHT22;10106;51.332;12.336;2023-04-06T09:19:49;24.20;32.30
19888;DHT22;10106;51.332;12.336;2023-04-06T09:22:15;23.40;32.60
19888;DHT22;10106;51.332;12.336;2023-04-06T09:24:49;23.50;31.90
19888;DHT22;10106;51.332;12.336;2023-04-06T09:27:16;24.20;31.80
19888;DHT22;10106;51.332;12.336;2023-04-06T09:29:42;24.70;31.50
19888;DHT22;10106;51.332;12.336;2023-04-06T09:32:09;24.80;31.30
19888;DHT22;10106;51.332;12.336;2023-04-06T09:34:42;24.90;30.40
19888;DHT22;10106;51.332;12.336;2023-04-06T09:37:17;25.00;30.30
19888;DHT22;10106;51.332;12.336;2023-04-06T09:39:44;25.30;30.40
19888;DHT22;10106;51.332;12.336;2023-04-06T09:42:22;25.50;30.10
19888;DHT22;10106;51.332;12.336;2023-04-06T09:44:48;25.90;29.10
19888;DHT22;10106;51.332;12.336;2023-04-06T09:47:15;26.20;28.40
19888;DHT22;10106;51.332;12.336;2023-04-06T09:49:42;25.50;28.30
19888;DHT22;10106;51.332;12.336;2023-04-06T09:52:11;26.30;28.00
19888;DHT22;10106;51.332;12.336;2023-04-06T09:54:38;27.00;27.50
19888;DHT22;10106;51.332;12.336;2023-04-06T09:57:07;25.50;25.90
19888;DHT22;10106;51.332;12.336;2023-04-06T09:59:46;25.50;27.70
19888;DHT22;10106;51.332;12.336;2023-04-06T10:05:09;24.30;26.90
19888;DHT22;10106;51.332;12.336;2023-04-06T10:07:40;22.80;25.60
19888;DHT22;10106;51.332;12.336;2023-04-06T10:10:07;20.70;26.70
19888;DHT22;10106;51.332;12.336;2023-04-06T10:12:33;18.90;28.30
19888;DHT22;10106;51.332;12.336;2023-04-06T10:14:59;17.80;29.00
19888;DHT22;10106;51.332;12.336;2023-04-06T10:17:28;17.80;29.70
19888;DHT22;10106;51.332;12.336;2023-04-06T10:20:17;17.40;30.00
19888;DHT22;10106;51.332;12.336;2023-04-06T10:22:56;16.80;30.80
19888;DHT22;10106;51.332;12.336;2023-04-06T10:25:34;15.90;30.80
19888;DHT22;10106;51.332;12.336;2023-04-06T10:28:08;15.30;31.20
19888;DHT22;10106;51.332;12.336;2023-04-06T10:30:35;15.50;30.60
19888;DHT22;10106;51.332;12.336;2023-04-06T10:33:17;15.60;31.00
19888;DHT22;10106;51.332;12.336;2023-04-06T10:35:43;15.00;32.20
19888;DHT22;10106;51.332;12.336;2023-04-06T10:38:09;14.90;32.50
19888;DHT22;10106;51.332;12.336;2023-04-06T10:40:39;14.10;33.60
19888;DHT22;10106;51.332;12.336;2023-04-06T10:43:10;14.00;33.90
19888;DHT22;10106;51.332;12.336;2023-04-06T10:45:36;13.70;33.90
19888;DHT22;10106;51.332;12.336;2023-04-06T10:48:17;13.30;34.00
19888;DHT22;10106;51.332;12.336;2023-04-06T10:50:51;13.60;34.20
19888;DHT22;10106;51.332;12.336;2023-04-06T10:53:24;13.80;34.00
19888;DHT22;10106;51.332;12.336;2023-04-06T10:55:51;14.10;34.30
19888;DHT22;10106;51.332;12.336;2023-04-06T10:58:17;14.20;33.50
19888;DHT22;10106;51.332;12.336;2023-04-06T11:00:47;13.90;34.70
19888;DHT22;10106;51.332;12.336;2023-04-06T11:03:14;13.70;35.30
19888;DHT22;10106;51.332;12.336;2023-04-06T11:05:46;13.80;35.00
19888;DHT22;10106;51.332;12.336;2023-04-06T11:08:26;13.20;35.00
19888;DHT22;10106;51.332;12.336;2023-04-06T11:11:03;13.30;35.60
19888;DHT22;10106;51.332;12.336;2023-04-06T11:13:58;13.30;35.40
19888;DHT22;10106;51.332;12.336;2023-04-06T11:16:25;13.30;35.90
19888;DHT22;10106;51.332;12.336;2023-04-06T11:18:58;13.30;36.10
19888;DHT22;10106;51.332;12.336;2023-04-06T11:21:39;13.10;36.20
19888;DHT22;10106;51.332;12.336;2023-04-06T11:24:21;13.20;36.20
19888;DHT22;10106;51.332;12.336;2023-04-06T11:26:57;13.40;36.40
19888;DHT22;10106;51.332;12.336;2023-04-06T11:29:27;13.50;35.80
19888;DHT22;10106;51.332;12.336;2023-04-06T11:31:58;13.70;36.00
19888;DHT22;10106;51.332;12.336;2023-04-06T11:34:25;13.70;36.50
19888;DHT22;10106;51.332;12.336;2023-04-06T11:36:58;13.90;36.20
19888;DHT22;10106;51.332;12.336;2023-04-06T11:39:26;13.90;36.20
19888;DHT22;10106;51.332;12.336;2023-04-06T11:41:54;13.90;36.40
19888;DHT22;10106;51.332;12.336;2023-04-06T11:44:38;13.70;35.20
19888;DHT22;10106;51.332;12.336;2023-04-06T11:47:07;13.50;35.90
19888;DHT22;10106;51.332;12.336;2023-04-06T11:49:36;13.60;36.00
19888;DHT22;10106;51.332;12.336;2023-04-06T11:52:02;13.70;36.00
19888;DHT22;10106;51.332;12.336;2023-04-06T11:54:35;13.90;36.00
19888;DHT22;10106;51.332;12.336;2023-04-06T11:57:03;13.90;36.00
19888;DHT22;10106;51.332;12.336;2023-04-06T11:59:29;13.90;35.90
19888;DHT22;10106;51.332;12.336;2023-04-06T12:01:56;13.60;35.90
19888;DHT22;10106;51.332;12.336;2023-04-06T12:04:22;13.20;35.40
19888;DHT22;10106;51.332;12.336;2023-04-06T12:06:48;13.00;36.10
19888;DHT22;10106;51.332;12.336;2023-04-06T12:09:14;13.00;36.50
19888;DHT22;10106;51.332;12.336;2023-04-06T12:11:39;12.90;36.60
19888;DHT22;10106;51.332;12.336;2023-04-06T12:14:06;13.00;36.30
19888;DHT22;10106;51.332;12.336;2023-04-06T12:16:33;13.30;38.00
19888;DHT22;10106;51.332;12.336;2023-04-06T12:19:00;13.50;36.90
19888;DHT22;10106;51.332;12.336;2023-04-06T12:21:27;13.30;36.50
19888;DHT22;10106;51.332;12.336;2023-04-06T12:23:54;13.20;36.60
19888;DHT22;10106;51.332;12.336;2023-04-06T12:26:20;13.10;36.40
19888;DHT22;10106;51.332;12.336;2023-04-06T12:28:46;13.20;36.90
19888;DHT22;10106;51.332;12.336;2023-04-06T12:31:20;13.20;37.50
19888;DHT22;10106;51.332;12.336;2023-04-06T12:33:47;13.30;37.10
19888;DHT22;10106;51.332;12.336;2023-04-06T12:36:18;13.20;37.00
19888;DHT22;10106;51.332;12.336;2023-04-06T12:38:48;13.00;36.70
19888;DHT22;10106;51.332;12.336;2023-04-06T12:41:15;13.10;37.10
19888;DHT22;10106;51.332;12.336;2023-04-06T12:43:42;13.10;36.90
19888;DHT22;10106;51.332;12.336;2023-04-06T12:46:08;13.10;37.00
19888;DHT22;10106;51.332;12.336;2023-04-06T12:48:34;13.00;37.50
19888;DHT22;10106;51.332;12.336;2023-04-06T12:51:03;13.00;37.30
19888;DHT22;10106;51.332;12.336;2023-04-06T12:53:30;12.90;36.80
19888;DHT22;10106;51.332;12.336;2023-04-06T12:55:56;13.00;37.00
19888;DHT22;10106;51.332;12.336;2023-04-06T12:58:24;13.00;37.20
19888;DHT22;10106;51.332;12.336;2023-04-06T13:00:52;12.70;37.00
19888;DHT22;10106;51.332;12.336;2023-04-06T13:03:19;12.70;37.20
19888;DHT22;10106;51.332;12.336;2023-04-06T13:05:50;12.60;37.40
19888;DHT22;10106;51.332;12.336;2023-04-06T13:08:17;12.70;37.90
19888;DHT22;10106;51.332;12.336;2023-04-06T13:10:44;12.80;38.10
19888;DHT22;10106;51.332;12.336;2023-04-06T13:13:12;12.80;37.80
19888;DHT22;10106;51.332;12.336;2023-04-06T13:15:38;12.90;37.70
19888;DHT22;10106;51.332;12.336;2023-04-06T13:18:04;12.70;37.00
19888;DHT22;10106;51.332;12.336;2023-04-06T13:20:30;12.60;37.40
19888;DHT22;10106;51.332;12.336;2023-04-06T13:22:58;12.50;37.60
19888;DHT22;10106;51.332;12.336;2023-04-06T13:25:23;12.30;38.90
19888;DHT22;10106;51.332;12.336;2023-04-06T13:27:49;12.40;40.10
19888;DHT22;10106;51.332;12.336;2023-04-06T13:30:16;12.60;38.40
19888;DHT22;10106;51.332;12.336;2023-04-06T13:32:42;12.60;38.30
19888;DHT22;10106;51.332;12.336;2023-04-06T13:35:08;12.60;39.10
19888;DHT22;10106;51.332;12.336;2023-04-06T13:37:34;12.30;38.40
19888;DHT22;10106;51.332;12.336;2023-04-06T13:40:00;12.20;38.70
19888;DHT22;10106;51.332;12.336;2023-04-06T13:42:27;12.20;38.50
19888;DHT22;10106;51.332;12.336;2023-04-06T13:44:53;12.20;38.70
19888;DHT22;10106;51.332;12.336;2023-04-06T13:47:19;12.30;39.90
19888;DHT22;10106;51.332;12.336;2023-04-06T13:49:46;12.50;39.20
19888;DHT22;10106;51.332;12.336;2023-04-06T13:52:12;12.50;39.40
19888;DHT22;10106;51.332;12.336;2023-04-06T13:54:38;12.60;39.30
19888;DHT22;10106;51.332;12.336;2023-04-06T13:57:04;12.70;38.90
19888;DHT22;10106;51.332;12.336;2023-04-06T13:59:38;12.60;39.10
19888;DHT22;10106;51.332;12.336;2023-04-06T14:02:05;12.60;39.00
19888;DHT22;10106;51.332;12.336;2023-04-06T14:04:31;12.60;38.80
19888;DHT22;10106;51.332;12.336;2023-04-06T14:06:58;12.60;38.80
19888;DHT22;10106;51.332;12.336;2023-04-06T14:09:24;12.40;39.20
19888;DHT22;10106;51.332;12.336;2023-04-06T14:11:50;12.40;39.30
19888;DHT22;10106;51.332;12.336;2023-04-06T14:14:16;12.40;39.70
19888;DHT22;10106;51.332;12.336;2023-04-06T14:16:42;12.20;39.40
19888;DHT22;10106;51.332;12.336;2023-04-06T14:19:12;12.30;40.10
19888;DHT22;10106;51.332;12.336;2023-04-06T14:21:38;12.40;39.50
19888;DHT22;10106;51.332;12.336;2023-04-06T14:24:06;12.30;39.50
19888;DHT22;10106;51.332;12.336;2023-04-06T14:26:32;12.30;39.70
19888;DHT22;10106;51.332;12.336;2023-04-06T14:29:02;12.40;39.70
19888;DHT22;10106;51.332;12.336;2023-04-06T14:31:28;12.40;39.70
19888;DHT22;10106;51.332;12.336;2023-04-06T14:33:53;12.40;39.50
19888;DHT22;10106;51.332;12.336;2023-04-06T14:36:20;12.40;39.70
19888;DHT22;10106;51.332;12.336;2023-04-06T14:38:45;12.20;39.60
19888;DHT22;10106;51.332;12.336;2023-04-06T14:41:18;12.00;39.40
19888;DHT22;10106;51.332;12.336;2023-04-06T14:43:45;11.90;40.00
19888;DHT22;10106;51.332;12.336;2023-04-06T14:46:11;11.80;39.90
19888;DHT22;10106;51.332;12.336;2023-04-06T14:48:37;11.80;39.90
19888;DHT22;10106;51.332;12.336;2023-04-06T14:51:02;11.80;40.20
19888;DHT22;10106;51.332;12.336;2023-04-06T14:53:29;11.70;39.90
19888;DHT22;10106;51.332;12.336;2023-04-06T14:55:55;11.70;39.90
19888;DHT22;10106;51.332;12.336;2023-04-06T14:58:22;11.70;40.30
19888;DHT22;10106;51.332;12.336;2023-04-06T15:00:48;11.70;40.20
19888;DHT22;10106;51.332;12.336;2023-04-06T15:03:15;11.70;40.00
19888;DHT22;10106;51.332;12.336;2023-04-06T15:05:41;11.60;39.90
19888;DHT22;10106;51.332;12.336;2023-04-06T15:08:07;11.60;40.20
19888;DHT22;10106;51.332;12.336;2023-04-06T15:10:35;11.50;40.50
19888;DHT22;10106;51.332;12.336;2023-04-06T15:13:02;11.50;39.70
19888;DHT22;10106;51.332;12.336;2023-04-06T15:15:28;11.40;39.90
19888;DHT22;10106;51.332;12.336;2023-04-06T15:17:53;11.30;39.50
19888;DHT22;10106;51.332;12.336;2023-04-06T15:20:19;11.30;39.80
19888;DHT22;10106;51.332;12.336;2023-04-06T15:22:45;11.20;39.90
19888;DHT22;10106;51.332;12.336;2023-04-06T15:25:11;11.20;39.80
19888;DHT22;10106;51.332;12.336;2023-04-06T15:27:37;11.20;40.10
19888;DHT22;10106;51.332;12.336;2023-04-06T15:30:03;11.20;40.30